sensor_id;sensor_type;location;lat;lon;timestamp;P1;durP1;ratioP1;P2;durP2;ratioP2
50363;SDS011;36272;59.400;17.982;2024-02-15T00:03:15;166.45;;;28.38;;
50363;SDS011;36272;59.400;17.982;2024-02-15T00:08:18;154.55;;;27.42;;
50363;SDS011;36272;59.400;17.982;2024-02-15T00:13:22;113.30;;;25.23;;
50363;SDS011;36272;59.400;17.982;2024-02-15T00:18:24;141.93;;;27.13;;
50363;SDS011;36272;59.400;17.982;2024-02-15T00:23:25;129.15;;;24.20;;
50363;SDS011;36272;59.400;17.982;2024-02-15T00:28:27;127.22;;;22.73;;
50363;SDS011;36272;59.400;17.982;2024-02-15T00:33:29;215.27;;;25.75;;
50363;SDS011;36272;59.400;17.982;2024-02-15T00:38:33;244.15;;;26.35;;
50363;SDS011;36272;59.400;17.982;2024-02-15T00:43:35;161.52;;;21.70;;
50363;SDS011;36272;59.400;17.982;2024-02-15T00:48:37;199.63;;;22.85;;
50363;SDS011;36272;59.400;17.982;2024-02-15T00:53:40;171.68;;;23.30;;
50363;SDS011;36272;59.400;17.982;2024-02-15T00:58:41;125.50;;;17.40;;
50363;SDS011;36272;59.400;17.982;2024-02-15T01:03:43;275.45;;;24.98;;
50363;SDS011;36272;59.400;17.982;2024-02-15T01:08:44;340.20;;;22.60;;
50363;SDS011;36272;59.400;17.982;2024-02-15T01:13:46;139.43;;;19.65;;
50363;SDS011;36272;59.400;17.982;2024-02-15T01:18:48;218.40;;;22.30;;
50363;SDS011;36272;59.400;17.982;2024-02-15T01:23:50;164.50;;;17.92;;
50363;SDS011;36272;59.400;17.982;2024-02-15T01:28:54;207.55;;;20.98;;
50363;SDS011;36272;59.400;17.982;2024-02-15T01:33:56;260.02;;;21.55;;
50363;SDS011;36272;59.400;17.982;2024-02-15T01:38:58;292.23;;;20.75;;
50363;SDS011;36272;59.400;17.982;2024-02-15T01:44:00;249.95;;;17.58;;
50363;SDS011;36272;59.400;17.982;2024-02-15T01:49:02;135.70;;;16.73;;
50363;SDS011;36272;59.400;17.982;2024-02-15T01:54:04;183.18;;;18.58;;
50363;SDS011;36272;59.400;17.982;2024-02-15T01:59:05;148.45;;;16.45;;
50363;SDS011;36272;59.400;17.982;2024-02-15T02:04:07;145.55;;;15.27;;
50363;SDS011;36272;59.400;17.982;2024-02-15T02:09:10;149.52;;;16.17;;
50363;SDS011;36272;59.400;17.982;2024-02-15T02:14:15;215.13;;;19.00;;
50363;SDS011;36272;59.400;17.982;2024-02-15T02:19:18;188.88;;;19.20;;
50363;SDS011;36272;59.400;17.982;2024-02-15T02:24:22;250.63;;;20.20;;
50363;SDS011;36272;59.400;17.982;2024-02-15T02:29:24;156.03;;;17.27;;
50363;SDS011;36272;59.400;17.982;2024-02-15T02:34:26;150.13;;;14.02;;
50363;SDS011;36272;59.400;17.982;2024-02-15T02:39:27;204.25;;;17.60;;
50363;SDS011;36272;59.400;17.982;2024-02-15T02:44:32;178.57;;;16.88;;
50363;SDS011;36272;59.400;17.982;2024-02-15T02:49:37;175.50;;;16.10;;
50363;SDS011;36272;59.400;17.982;2024-02-15T02:54:38;277.13;;;20.85;;
50363;SDS011;36272;59.400;17.982;2024-02-15T02:59:40;321.60;;;20.73;;
50363;SDS011;36272;59.400;17.982;2024-02-15T03:04:41;252.02;;;19.23;;
50363;SDS011;36272;59.400;17.982;2024-02-15T03:09:43;204.13;;;17.52;;
50363;SDS011;36272;59.400;17.982;2024-02-15T03:14:44;205.30;;;18.70;;
50363;SDS011;36272;59.400;17.982;2024-02-15T03:19:46;206.90;;;19.33;;
50363;SDS011;36272;59.400;17.982;2024-02-15T03:24:50;158.93;;;16.63;;
50363;SDS011;36272;59.400;17.982;2024-02-15T03:29:51;169.98;;;17.83;;
50363;SDS011;36272;59.400;17.982;2024-02-15T03:34:54;94.13;;;14.85;;
50363;SDS011;36272;59.400;17.982;2024-02-15T03:39:55;116.95;;;15.98;;
50363;SDS011;36272;59.400;17.982;2024-02-15T03:44:57;139.45;;;17.70;;
50363;SDS011;36272;59.400;17.982;2024-02-15T03:49:59;142.57;;;17.27;;
50363;SDS011;36272;59.400;17.982;2024-02-15T03:55:01;295.17;;;21.42;;
50363;SDS011;36272;59.400;17.982;2024-02-15T04:00:03;156.75;;;16.98;;
50363;SDS011;36272;59.400;17.982;2024-02-15T04:05:05;167.93;;;17.10;;
50363;SDS011;36272;59.400;17.982;2024-02-15T04:10:09;128.82;;;16.38;;
50363;SDS011;36272;59.400;17.982;2024-02-15T04:15:10;154.00;;;15.25;;
50363;SDS011;36272;59.400;17.982;2024-02-15T04:20:18;124.45;;;14.20;;
50363;SDS011;36272;59.400;17.982;2024-02-15T04:25:19;199.10;;;17.33;;
50363;SDS011;36272;59.400;17.982;2024-02-15T04:30:24;102.60;;;15.50;;
50363;SDS011;36272;59.400;17.982;2024-02-15T04:35:25;113.32;;;14.75;;
50363;SDS011;36272;59.400;17.982;2024-02-15T04:40:29;156.57;;;14.88;;
50363;SDS011;36272;59.400;17.982;2024-02-15T04:45:30;164.40;;;15.23;;
50363;SDS011;36272;59.400;17.982;2024-02-15T04:50:33;102.35;;;15.02;;
50363;SDS011;36272;59.400;17.982;2024-02-15T04:55:35;145.45;;;15.52;;
50363;SDS011;36272;59.400;17.982;2024-02-15T05:00:36;107.80;;;14.05;;
50363;SDS011;36272;59.400;17.982;2024-02-15T05:05:38;158.07;;;16.63;;
50363;SDS011;36272;59.400;17.982;2024-02-15T05:10:40;141.20;;;15.82;;
50363;SDS011;36272;59.400;17.982;2024-02-15T05:15:41;170.80;;;16.77;;
50363;SDS011;36272;59.400;17.982;2024-02-15T05:20:43;198.82;;;17.83;;
50363;SDS011;36272;59.400;17.982;2024-02-15T05:25:45;169.85;;;16.38;;
50363;SDS011;36272;59.400;17.982;2024-02-15T05:30:46;99.47;;;14.75;;
50363;SDS011;36272;59.400;17.982;2024-02-15T05:35:48;115.50;;;14.55;;
50363;SDS011;36272;59.400;17.982;2024-02-15T05:40:52;102.70;;;14.93;;
50363;SDS011;36272;59.400;17.982;2024-02-15T05:45:53;158.13;;;17.58;;
50363;SDS011;36272;59.400;17.982;2024-02-15T05:50:55;188.57;;;17.25;;
50363;SDS011;36272;59.400;17.982;2024-02-15T05:55:58;161.68;;;16.95;;
50363;SDS011;36272;59.400;17.982;2024-02-15T06:01:00;145.15;;;17.38;;
50363;SDS011;36272;59.400;17.982;2024-02-15T06:06:03;201.80;;;16.83;;
50363;SDS011;36272;59.400;17.982;2024-02-15T06:11:08;137.87;;;16.37;;
50363;SDS011;36272;59.400;17.982;2024-02-15T06:16:11;197.52;;;18.40;;
50363;SDS011;36272;59.400;17.982;2024-02-15T06:21:13;183.80;;;17.92;;
50363;SDS011;36272;59.400;17.982;2024-02-15T06:26:14;182.65;;;19.05;;
50363;SDS011;36272;59.400;17.982;2024-02-15T06:31:16;196.15;;;19.60;;
50363;SDS011;36272;59.400;17.982;2024-02-15T06:37:09;191.52;;;19.80;;
50363;SDS011;36272;59.400;17.982;2024-02-15T06:42:22;165.95;;;18.67;;
50363;SDS011;36272;59.400;17.982;2024-02-15T06:47:24;145.40;;;19.45;;
50363;SDS011;36272;59.400;17.982;2024-02-15T06:52:26;191.00;;;18.90;;
50363;SDS011;36272;59.400;17.982;2024-02-15T06:57:27;136.23;;;18.38;;
50363;SDS011;36272;59.400;17.982;2024-02-15T07:02:29;133.77;;;19.02;;
50363;SDS011;36272;59.400;17.982;2024-02-15T07:07:31;178.65;;;21.92;;
50363;SDS011;36272;59.400;17.982;2024-02-15T07:12:33;178.43;;;22.13;;
50363;SDS011;36272;59.400;17.982;2024-02-15T07:17:34;186.98;;;22.92;;
50363;SDS011;36272;59.400;17.982;2024-02-15T07:22:38;156.73;;;21.20;;
50363;SDS011;36272;59.400;17.982;2024-02-15T07:27:39;183.30;;;22.67;;
50363;SDS011;36272;59.400;17.982;2024-02-15T07:32:41;320.83;;;26.48;;
50363;SDS011;36272;59.400;17.982;2024-02-15T07:37:52;235.93;;;24.75;;
50363;SDS011;36272;59.400;17.982;2024-02-15T07:42:56;198.15;;;23.55;;
50363;SDS011;36272;59.400;17.982;2024-02-15T07:48:05;256.43;;;25.93;;
50363;SDS011;36272;59.400;17.982;2024-02-15T07:53:06;184.50;;;23.27;;
50363;SDS011;36272;59.400;17.982;2024-02-15T07:58:09;147.27;;;21.58;;
50363;SDS011;36272;59.400;17.982;2024-02-15T08:03:11;143.48;;;21.10;;
50363;SDS011;36272;59.400;17.982;2024-02-15T08:08:12;234.85;;;25.58;;
50363;SDS011;36272;59.400;17.982;2024-02-15T08:13:14;148.68;;;20.73;;
50363;SDS011;36272;59.400;17.982;2024-02-15T08:18:16;180.05;;;23.10;;
50363;SDS011;36272;59.400;17.982;2024-02-15T08:23:18;188.48;;;24.30;;
50363;SDS011;36272;59.400;17.982;2024-02-15T08:28:19;217.88;;;24.73;;
50363;SDS011;36272;59.400;17.982;2024-02-15T08:33:21;232.40;;;26.50;;
50363;SDS011;36272;59.400;17.982;2024-02-15T08:38:24;156.65;;;21.60;;
50363;SDS011;36272;59.400;17.982;2024-02-15T08:43:26;187.15;;;26.30;;
50363;SDS011;36272;59.400;17.982;2024-02-15T08:48:28;211.85;;;25.83;;
50363;SDS011;36272;59.400;17.982;2024-02-15T08:53:31;259.02;;;28.08;;
50363;SDS011;36272;59.400;17.982;2024-02-15T08:58:33;174.38;;;26.52;;
50363;SDS011;36272;59.400;17.982;2024-02-15T09:03:36;363.38;;;31.17;;
50363;SDS011;36272;59.400;17.982;2024-02-15T09:08:37;217.35;;;29.40;;
50363;SDS011;36272;59.400;17.982;2024-02-15T09:13:39;250.98;;;33.22;;
50363;SDS011;36272;59.400;17.982;2024-02-15T09:18:41;313.30;;;37.85;;
50363;SDS011;36272;59.400;17.982;2024-02-15T09:23:46;287.60;;;37.10;;
50363;SDS011;36272;59.400;17.982;2024-02-15T09:28:48;281.95;;;37.28;;
50363;SDS011;36272;59.400;17.982;2024-02-15T09:33:50;249.45;;;37.10;;
50363;SDS011;36272;59.400;17.982;2024-02-15T09:38:51;226.90;;;34.88;;
50363;SDS011;36272;59.400;17.982;2024-02-15T09:43:53;236.63;;;38.10;;
50363;SDS011;36272;59.400;17.982;2024-02-15T09:48:55;235.55;;;38.72;;
50363;SDS011;36272;59.400;17.982;2024-02-15T09:59:02;234.88;;;40.67;;
50363;SDS011;36272;59.400;17.982;2024-02-15T10:04:04;207.07;;;35.47;;
50363;SDS011;36272;59.400;17.982;2024-02-15T10:09:23;193.18;;;33.17;;
50363;SDS011;36272;59.400;17.982;2024-02-15T10:14:32;207.75;;;36.83;;
50363;SDS011;36272;59.400;17.982;2024-02-15T10:19:39;213.73;;;38.30;;
50363;SDS011;36272;59.400;17.982;2024-02-15T10:24:43;184.55;;;37.08;;
50363;SDS011;36272;59.400;17.982;2024-02-15T10:29:45;179.93;;;37.08;;
50363;SDS011;36272;59.400;17.982;2024-02-15T10:34:46;189.93;;;40.90;;
50363;SDS011;36272;59.400;17.982;2024-02-15T10:40:03;185.07;;;35.97;;
50363;SDS011;36272;59.400;17.982;2024-02-15T10:45:08;161.15;;;35.63;;
50363;SDS011;36272;59.400;17.982;2024-02-15T10:50:11;143.45;;;32.83;;
50363;SDS011;36272;59.400;17.982;2024-02-15T10:55:13;157.23;;;33.03;;
50363;SDS011;36272;59.400;17.982;2024-02-15T11:00:30;162.55;;;33.42;;
50363;SDS011;36272;59.400;17.982;2024-02-15T11:05:39;122.40;;;28.33;;
50363;SDS011;36272;59.400;17.982;2024-02-15T11:10:43;131.07;;;29.73;;
50363;SDS011;36272;59.400;17.982;2024-02-15T11:15:46;182.20;;;33.17;;
50363;SDS011;36272;59.400;17.982;2024-02-15T11:20:50;136.57;;;30.83;;
50363;SDS011;36272;59.400;17.982;2024-02-15T11:25:52;114.40;;;26.92;;
50363;SDS011;36272;59.400;17.982;2024-02-15T11:30:55;117.10;;;27.33;;
50363;SDS011;36272;59.400;17.982;2024-02-15T11:36:16;112.22;;;25.50;;
50363;SDS011;36272;59.400;17.982;2024-02-15T11:41:18;102.68;;;26.45;;
50363;SDS011;36272;59.400;17.982;2024-02-15T11:46:20;91.80;;;24.95;;
50363;SDS011;36272;59.400;17.982;2024-02-15T11:51:25;78.55;;;23.05;;
50363;SDS011;36272;59.400;17.982;2024-02-15T11:56:50;83.22;;;23.33;;
50363;SDS011;36272;59.400;17.982;2024-02-15T12:01:56;87.28;;;25.20;;
50363;SDS011;36272;59.400;17.982;2024-02-15T12:07:16;85.88;;;23.33;;
50363;SDS011;36272;59.400;17.982;2024-02-15T12:12:36;84.07;;;24.65;;
50363;SDS011;36272;59.400;17.982;2024-02-15T12:18:12;77.60;;;23.23;;
50363;SDS011;36272;59.400;17.982;2024-02-15T12:23:34;71.00;;;22.63;;
50363;SDS011;36272;59.400;17.982;2024-02-15T12:28:36;79.28;;;23.08;;
50363;SDS011;36272;59.400;17.982;2024-02-15T12:33:40;99.50;;;23.80;;
50363;SDS011;36272;59.400;17.982;2024-02-15T12:38:41;94.47;;;26.33;;
50363;SDS011;36272;59.400;17.982;2024-02-15T12:43:44;91.05;;;25.65;;
50363;SDS011;36272;59.400;17.982;2024-02-15T12:48:45;119.57;;;27.27;;
50363;SDS011;36272;59.400;17.982;2024-02-15T12:53:47;118.55;;;27.80;;
50363;SDS011;36272;59.400;17.982;2024-02-15T12:58:49;108.38;;;24.33;;
50363;SDS011;36272;59.400;17.982;2024-02-15T13:03:51;105.88;;;28.13;;
50363;SDS011;36272;59.400;17.982;2024-02-15T13:08:53;98.35;;;25.08;;
50363;SDS011;36272;59.400;17.982;2024-02-15T13:13:55;118.30;;;28.65;;
50363;SDS011;36272;59.400;17.982;2024-02-15T13:18:57;98.53;;;26.58;;
50363;SDS011;36272;59.400;17.982;2024-02-15T13:24:00;118.82;;;28.38;;
50363;SDS011;36272;59.400;17.982;2024-02-15T13:29:06;98.57;;;26.77;;
50363;SDS011;36272;59.400;17.982;2024-02-15T13:34:07;138.30;;;42.40;;
50363;SDS011;36272;59.400;17.982;2024-02-15T13:39:09;107.78;;;27.45;;
50363;SDS011;36272;59.400;17.982;2024-02-15T13:44:10;154.10;;;27.88;;
50363;SDS011;36272;59.400;17.982;2024-02-15T13:49:12;109.20;;;26.73;;
50363;SDS011;36272;59.400;17.982;2024-02-15T13:54:14;104.50;;;25.92;;
50363;SDS011;36272;59.400;17.982;2024-02-15T13:59:15;112.13;;;24.23;;
50363;SDS011;36272;59.400;17.982;2024-02-15T14:04:17;91.45;;;23.02;;
50363;SDS011;36272;59.400;17.982;2024-02-15T14:09:19;84.95;;;22.10;;
50363;SDS011;36272;59.400;17.982;2024-02-15T14:14:20;99.10;;;24.58;;
50363;SDS011;36272;59.400;17.982;2024-02-15T14:19:23;112.43;;;23.38;;
50363;SDS011;36272;59.400;17.982;2024-02-15T14:24:27;108.32;;;24.20;;
50363;SDS011;36272;59.400;17.982;2024-02-15T14:29:29;109.72;;;23.40;;
50363;SDS011;36272;59.400;17.982;2024-02-15T14:34:34;133.75;;;24.50;;
50363;SDS011;36272;59.400;17.982;2024-02-15T14:39:37;130.70;;;24.60;;
50363;SDS011;36272;59.400;17.982;2024-02-15T14:44:39;182.73;;;24.77;;
50363;SDS011;36272;59.400;17.982;2024-02-15T14:49:40;161.52;;;23.65;;
50363;SDS011;36272;59.400;17.982;2024-02-15T14:54:42;121.28;;;22.48;;
50363;SDS011;36272;59.400;17.982;2024-02-15T14:59:43;196.23;;;24.45;;
50363;SDS011;36272;59.400;17.982;2024-02-15T15:04:45;183.88;;;23.75;;
50363;SDS011;36272;59.400;17.982;2024-02-15T15:10:19;129.55;;;23.58;;
50363;SDS011;36272;59.400;17.982;2024-02-15T15:15:39;183.20;;;24.65;;
50363;SDS011;36272;59.400;17.982;2024-02-15T15:20:41;133.55;;;23.75;;
50363;SDS011;36272;59.400;17.982;2024-02-15T15:25:48;118.18;;;20.73;;
50363;SDS011;36272;59.400;17.982;2024-02-15T15:30:49;256.17;;;26.38;;
50363;SDS011;36272;59.400;17.982;2024-02-15T15:35:52;250.35;;;27.30;;
50363;SDS011;36272;59.400;17.982;2024-02-15T15:40:55;292.55;;;26.52;;
50363;SDS011;36272;59.400;17.982;2024-02-15T15:45:57;252.70;;;26.02;;
50363;SDS011;36272;59.400;17.982;2024-02-15T15:50:59;228.23;;;25.67;;
50363;SDS011;36272;59.400;17.982;2024-02-15T15:56:02;150.32;;;22.00;;
50363;SDS011;36272;59.400;17.982;2024-02-15T16:01:04;288.63;;;25.23;;
50363;SDS011;36272;59.400;17.982;2024-02-15T16:06:11;156.30;;;20.90;;
50363;SDS011;36272;59.400;17.982;2024-02-15T16:11:13;200.65;;;25.20;;
50363;SDS011;36272;59.400;17.982;2024-02-15T16:16:17;263.80;;;25.73;;
50363;SDS011;36272;59.400;17.982;2024-02-15T16:21:19;302.13;;;26.63;;
50363;SDS011;36272;59.400;17.982;2024-02-15T16:26:21;239.27;;;27.38;;
50363;SDS011;36272;59.400;17.982;2024-02-15T16:31:22;141.85;;;23.88;;
50363;SDS011;36272;59.400;17.982;2024-02-15T16:36:24;217.77;;;42.42;;
50363;SDS011;36272;59.400;17.982;2024-02-15T16:41:26;309.65;;;35.28;;
50363;SDS011;36272;59.400;17.982;2024-02-15T16:46:30;286.35;;;37.45;;
50363;SDS011;36272;59.400;17.982;2024-02-15T16:51:32;179.93;;;25.17;;
50363;SDS011;36272;59.400;17.982;2024-02-15T16:56:35;196.70;;;23.95;;
50363;SDS011;36272;59.400;17.982;2024-02-15T17:01:37;319.20;;;26.45;;
50363;SDS011;36272;59.400;17.982;2024-02-15T17:06:57;133.60;;;21.10;;
50363;SDS011;36272;59.400;17.982;2024-02-15T17:11:58;270.50;;;25.23;;
50363;SDS011;36272;59.400;17.982;2024-02-15T17:17:00;126.53;;;20.48;;
50363;SDS011;36272;59.400;17.982;2024-02-15T17:22:02;143.18;;;24.00;;
50363;SDS011;36272;59.400;17.982;2024-02-15T17:27:05;125.13;;;20.58;;
50363;SDS011;36272;59.400;17.982;2024-02-15T17:32:06;91.53;;;19.27;;
50363;SDS011;36272;59.400;17.982;2024-02-15T17:37:08;110.38;;;17.85;;
50363;SDS011;36272;59.400;17.982;2024-02-15T17:42:10;132.65;;;19.85;;
50363;SDS011;36272;59.400;17.982;2024-02-15T17:47:12;111.40;;;20.33;;
50363;SDS011;36272;59.400;17.982;2024-02-15T17:52:13;117.38;;;20.88;;
50363;SDS011;36272;59.400;17.982;2024-02-15T17:57:15;193.75;;;22.92;;
50363;SDS011;36272;59.400;17.982;2024-02-15T18:02:17;231.48;;;24.48;;
50363;SDS011;36272;59.400;17.982;2024-02-15T18:07:18;102.30;;;19.13;;
50363;SDS011;36272;59.400;17.982;2024-02-15T18:12:20;116.13;;;23.58;;
50363;SDS011;36272;59.400;17.982;2024-02-15T18:17:23;182.32;;;23.55;;
50363;SDS011;36272;59.400;17.982;2024-02-15T18:22:25;236.15;;;25.08;;
50363;SDS011;36272;59.400;17.982;2024-02-15T18:27:29;166.75;;;23.10;;
50363;SDS011;36272;59.400;17.982;2024-02-15T18:32:30;92.43;;;20.83;;
50363;SDS011;36272;59.400;17.982;2024-02-15T18:37:33;158.45;;;23.20;;
50363;SDS011;36272;59.400;17.982;2024-02-15T18:42:35;228.18;;;23.80;;
50363;SDS011;36272;59.400;17.982;2024-02-15T18:47:38;229.45;;;24.73;;
50363;SDS011;36272;59.400;17.982;2024-02-15T18:52:40;254.80;;;26.63;;
50363;SDS011;36272;59.400;17.982;2024-02-15T18:57:42;150.00;;;24.90;;
50363;SDS011;36272;59.400;17.982;2024-02-15T19:02:43;200.18;;;24.73;;
50363;SDS011;36272;59.400;17.982;2024-02-15T19:07:52;166.15;;;24.92;;
50363;SDS011;36272;59.400;17.982;2024-02-15T19:12:54;143.13;;;22.67;;
50363;SDS011;36272;59.400;17.982;2024-02-15T19:17:56;213.18;;;25.98;;
50363;SDS011;36272;59.400;17.982;2024-02-15T19:22:58;184.85;;;25.33;;
50363;SDS011;36272;59.400;17.982;2024-02-15T19:27:59;201.90;;;27.45;;
50363;SDS011;36272;59.400;17.982;2024-02-15T19:33:06;190.90;;;24.75;;
50363;SDS011;36272;59.400;17.982;2024-02-15T19:38:07;181.15;;;26.73;;
50363;SDS011;36272;59.400;17.982;2024-02-15T19:43:09;230.15;;;29.58;;
50363;SDS011;36272;59.400;17.982;2024-02-15T19:48:12;202.02;;;27.13;;
50363;SDS011;36272;59.400;17.982;2024-02-15T19:53:14;162.65;;;23.63;;
50363;SDS011;36272;59.400;17.982;2024-02-15T19:58:16;222.45;;;26.05;;
50363;SDS011;36272;59.400;17.982;2024-02-15T20:03:22;392.77;;;31.67;;
50363;SDS011;36272;59.400;17.982;2024-02-15T20:08:26;261.58;;;31.00;;
50363;SDS011;36272;59.400;17.982;2024-02-15T20:13:29;163.68;;;25.75;;
50363;SDS011;36272;59.400;17.982;2024-02-15T20:18:34;265.60;;;30.27;;
50363;SDS011;36272;59.400;17.982;2024-02-15T20:23:39;297.48;;;31.88;;
50363;SDS011;36272;59.400;17.982;2024-02-15T20:28:41;216.43;;;31.85;;
50363;SDS011;36272;59.400;17.982;2024-02-15T20:33:43;318.85;;;35.03;;
50363;SDS011;36272;59.400;17.982;2024-02-15T20:38:44;252.93;;;33.80;;
50363;SDS011;36272;59.400;17.982;2024-02-15T20:43:47;312.25;;;35.35;;
50363;SDS011;36272;59.400;17.982;2024-02-15T20:48:52;228.77;;;30.73;;
50363;SDS011;36272;59.400;17.982;2024-02-15T20:53:55;363.25;;;34.33;;
50363;SDS011;36272;59.400;17.982;2024-02-15T20:58:57;324.85;;;36.50;;
50363;SDS011;36272;59.400;17.982;2024-02-15T21:04:04;259.05;;;34.83;;
50363;SDS011;36272;59.400;17.982;2024-02-15T21:09:06;439.80;;;41.90;;
50363;SDS011;36272;59.400;17.982;2024-02-15T21:14:14;502.45;;;38.03;;
50363;SDS011;36272;59.400;17.982;2024-02-15T21:19:15;470.27;;;36.33;;
50363;SDS011;36272;59.400;17.982;2024-02-15T21:24:17;276.45;;;33.15;;
50363;SDS011;36272;59.400;17.982;2024-02-15T21:29:18;295.73;;;35.10;;
50363;SDS011;36272;59.400;17.982;2024-02-15T21:34:21;342.05;;;34.78;;
50363;SDS011;36272;59.400;17.982;2024-02-15T21:39:22;335.92;;;33.97;;
50363;SDS011;36272;59.400;17.982;2024-02-15T21:44:26;442.80;;;37.08;;
50363;SDS011;36272;59.400;17.982;2024-02-15T21:49:27;251.50;;;32.53;;
50363;SDS011;36272;59.400;17.982;2024-02-15T21:54:29;328.75;;;34.28;;
50363;SDS011;36272;59.400;17.982;2024-02-15T21:59:34;633.72;;;45.42;;
50363;SDS011;36272;59.400;17.982;2024-02-15T22:04:36;285.30;;;32.03;;
50363;SDS011;36272;59.400;17.982;2024-02-15T22:09:38;540.35;;;40.63;;
50363;SDS011;36272;59.400;17.982;2024-02-15T22:14:40;391.65;;;36.85;;
50363;SDS011;36272;59.400;17.982;2024-02-15T22:19:42;331.92;;;35.22;;
50363;SDS011;36272;59.400;17.982;2024-02-15T22:24:45;326.55;;;33.80;;
50363;SDS011;36272;59.400;17.982;2024-02-15T22:29:46;490.05;;;41.70;;
50363;SDS011;36272;59.400;17.982;2024-02-15T22:34:48;510.40;;;41.78;;
50363;SDS011;36272;59.400;17.982;2024-02-15T22:39:50;506.15;;;41.22;;
50363;SDS011;36272;59.400;17.982;2024-02-15T22:44:51;388.45;;;38.58;;
50363;SDS011;36272;59.400;17.982;2024-02-15T22:49:54;551.28;;;43.17;;
50363;SDS011;36272;59.400;17.982;2024-02-15T22:54:57;264.52;;;32.78;;
50363;SDS011;36272;59.400;17.982;2024-02-15T22:59:58;477.05;;;41.60;;
50363;SDS011;36272;59.400;17.982;2024-02-15T23:05:01;305.95;;;35.10;;
50363;SDS011;36272;59.400;17.982;2024-02-15T23:10:05;596.38;;;43.92;;
50363;SDS011;36272;59.400;17.982;2024-02-15T23:15:07;562.10;;;42.42;;
50363;SDS011;36272;59.400;17.982;2024-02-15T23:20:09;463.48;;;40.47;;
50363;SDS011;36272;59.400;17.982;2024-02-15T23:25:13;553.30;;;43.53;;
50363;SDS011;36272;59.400;17.982;2024-02-15T23:30:15;385.75;;;40.47;;
50363;SDS011;36272;59.400;17.982;2024-02-15T23:35:21;499.85;;;41.15;;
50363;SDS011;36272;59.400;17.982;2024-02-15T23:40:31;514.10;;;43.97;;
50363;SDS011;36272;59.400;17.982;2024-02-15T23:45:33;385.45;;;39.53;;
50363;SDS011;36272;59.400;17.982;2024-02-15T23:50:36;420.80;;;40.58;;
50363;SDS011;36272;59.400;17.982;2024-02-15T23:55:38;481.70;;;42.13;;
